Share

Allen, OK

Ada Municipal (KADH) Elev 1017 ft | 34.80 °N, 96.67 °W | Change Station

Current weather conditions updated 9 minutes ago

Thunderstorms and Rain
Thunderstorm Rain
59 °F
Feels Like 59 °F
N
7
Wind Variable Wind from ESE
Sunrise 6:46 AM
Sunset 8:02 PM
Moon Waning Gibbous

Today is forecast to be Warmer than yesterday. Showers and thunderstorms.

Pressure 30.01 in
Visibility 7.0 miles
Clouds Scattered Clouds 1300 ft
Mostly Cloudy 1900 ft
Overcast 2700 ft
Dew Point 59 °F
Humidity 100%
Rainfall 0.79 in
Snow Depth Not available.
UV 1 out of 16
Pollen 3.50 out of 12
Air Quality Not available.
Flu Activity Regional
METAR KADH 211435Z AUTO 12006KT 7SM TSRA SCT013 BKN019 OVC027 15/15 A3001 RMK AO2 LTG DSNT SE THRU SW P0004

More Conditions Fewer Conditions

Pressure 30.01 in
Visibility 7.0 miles
Clouds Scattered Clouds 1300 ft
Mostly Cloudy 1900 ft
Overcast 2700 ft
Dew Point 59 °F
Humidity 100%
Rainfall 0.79 in
Snow Depth Not available.
UV 1 out of 16
Pollen 3.50 out of 12
Air Quality Not available.
Flu Activity Regional
METAR KADH 211435Z AUTO 12006KT 7SM TSRA SCT013 BKN019 OVC027 15/15 A3001 RMK AO2 LTG DSNT SE THRU SW P0004

More Conditions Fewer Conditions

10-Day Weather Forecast

Almanac

Astronomy

Apr. 21, 2014 Rise Set
Actual Time 6:46 AM CDT 8:02 PM CDT
Civil Twilight 6:19 AM CDT 8:29 PM CDT
Nautical Twilight 5:48 AM CDT 9:00 PM CDT
Astronomical Twilight 5:15 AM CDT 9:33 PM CDT
Moon 1:30 AM CDT 12:17 PM CDT
Length of Visible Light 14h 09m
Length of Day
13h 16m
Tomorrow will be 2m 0s longer.
Waning Gibbous, 58% of the Moon is Illuminated
Today
Waning Gibbous
Apr 22
Last Quarter
Apr 29
New
May 6
First Quarter
May 14
Full

Today's Extremes

State Highs State Lows

Community

  • Bright Eyes
    Bright Eyes
  • Snowy Robin
    Snowy Robin
  • Spring Crocus
    Spring Crocus
  • Sun Pillar and Geese
    Sun Pillar and Geese
  • Showers on the Way
    Showers on the Way

WunderPhotos

Upload Photos

1,703,649 photos uploaded!

Nearby

Snow Depth

Station Depth Elevation
No new snow has been reported.

Coastal Water Temperatures

Place Temperature
No Stations Reporting

Earthquake Activity

City Distance Mag. Time & Date
Helena, Oklahoma 154 miles 3.4 6:50 AM CDT
2014-04-17
Perry, Oklahoma 101 miles 2.7 11:52 AM CDT
2014-04-16
Crescent, Oklahoma 110 miles 2.8 7:36 PM CDT
2014-04-15
Perry, Oklahoma 108 miles 2.5 1:42 PM CDT
2014-04-14
Minimum magnitude displayed is 2.5.

Nearby Weather Stations

Station Location Temp. Dew Point Humidity Wind Precip. Elev Updated Type
Emergency Operations Center, Holdenville, OK 60.4 °F 59 °F 96% South  at  1.0 mph 0.10 in / hr 908 ft 7:30 AM CDT Normal
Horntown OK, Holdenville, OK 60.3 °F 60 °F 99% SSW  at  3.7 mph - / hr 827 ft 9:35 AM CDT Normal

Show More Stations Show Fewer Stations

What do you think?

We're not finished. Please let us know what you like, what you don't like, and what you are still missing.